sensor_id;sensor_type;location;lat;lon;timestamp;pressure;altitude;pressure_sealevel;temperature;humidity
76746;BME280;65671;49.976;20.038;2023-02-03T00:00:35;98464.81;;;-0.47;87.17
76746;BME280;65671;49.976;20.038;2023-02-03T00:03:01;98466.66;;;-0.57;87.44
76746;BME280;65671;49.976;20.038;2023-02-03T00:05:27;98455.69;;;-0.64;87.42
76746;BME280;65671;49.976;20.038;2023-02-03T00:07:53;98462.56;;;-0.63;88.06
76746;BME280;65671;49.976;20.038;2023-02-03T00:10:19;98467.28;;;-0.60;86.81
76746;BME280;65671;49.976;20.038;2023-02-03T00:12:50;98461.00;;;-0.64;87.27
76746;BME280;65671;49.976;20.038;2023-02-03T00:15:17;98461.00;;;-0.64;86.90
76746;BME280;65671;49.976;20.038;2023-02-03T00:17:43;98457.88;;;-0.66;86.96
76746;BME280;65671;49.976;20.038;2023-02-03T00:20:10;98452.88;;;-0.59;86.22
76746;BME280;65671;49.976;20.038;2023-02-03T00:22:35;98457.72;;;-0.61;86.25
76746;BME280;65671;49.976;20.038;2023-02-03T00:25:01;98460.84;;;-0.59;86.27
76746;BME280;65671;49.976;20.038;2023-02-03T00:27:26;98468.34;;;-0.61;86.94
76746;BME280;65671;49.976;20.038;2023-02-03T00:29:52;98473.50;;;-0.64;85.70
76746;BME280;65671;49.976;20.038;2023-02-03T00:32:18;98476.47;;;-0.66;85.52
76746;BME280;65671;49.976;20.038;2023-02-03T00:34:43;98477.44;;;-0.53;85.25
76746;BME280;65671;49.976;20.038;2023-02-03T00:37:11;98475.06;;;-0.63;85.71
76746;BME280;65671;49.976;20.038;2023-02-03T00:39:37;98485.53;;;-0.67;85.00
76746;BME280;65671;49.976;20.038;2023-02-03T00:42:04;98485.06;;;-0.69;85.98
76746;BME280;65671;49.976;20.038;2023-02-03T00:44:30;98491.31;;;-0.65;86.13
76746;BME280;65671;49.976;20.038;2023-02-03T00:46:55;98490.25;;;-0.64;85.59
76746;BME280;65671;49.976;20.038;2023-02-03T00:49:21;98503.25;;;-0.62;85.55
76746;BME280;65671;49.976;20.038;2023-02-03T00:51:46;98501.97;;;-0.65;85.22
76746;BME280;65671;49.976;20.038;2023-02-03T00:54:12;98503.34;;;-0.67;85.95
76746;BME280;65671;49.976;20.038;2023-02-03T00:56:38;98505.22;;;-0.68;85.69
76746;BME280;65671;49.976;20.038;2023-02-03T00:59:04;98501.84;;;-0.60;85.76
76746;BME280;65671;49.976;20.038;2023-02-03T01:01:29;98503.69;;;-0.69;85.47
76746;BME280;65671;49.976;20.038;2023-02-03T01:03:55;98518.06;;;-0.70;86.58
76746;BME280;65671;49.976;20.038;2023-02-03T01:06:22;98515.09;;;-0.68;85.99
76746;BME280;65671;49.976;20.038;2023-02-03T01:08:48;98513.94;;;-0.76;85.40
76746;BME280;65671;49.976;20.038;2023-02-03T01:11:17;98514.94;;;-0.72;85.01
76746;BME280;65671;49.976;20.038;2023-02-03T01:13:43;98511.66;;;-0.69;84.89
76746;BME280;65671;49.976;20.038;2023-02-03T01:16:11;98516.38;;;-0.66;84.47
76746;BME280;65671;49.976;20.038;2023-02-03T01:18:37;98519.97;;;-0.62;84.52
76746;BME280;65671;49.976;20.038;2023-02-03T01:21:23;98523.38;;;-0.70;85.66
76746;BME280;65671;49.976;20.038;2023-02-03T01:23:50;98521.97;;;-0.67;85.08
76746;BME280;65671;49.976;20.038;2023-02-03T01:26:19;98527.34;;;-0.59;85.50
76746;BME280;65671;49.976;20.038;2023-02-03T01:28:56;98536.66;;;-0.70;85.09
76746;BME280;65671;49.976;20.038;2023-02-03T01:31:31;98529.91;;;-0.76;86.22
76746;BME280;65671;49.976;20.038;2023-02-03T01:34:01;98521.94;;;-0.76;86.05
76746;BME280;65671;49.976;20.038;2023-02-03T01:36:29;98522.00;;;-0.89;86.85
76746;BME280;65671;49.976;20.038;2023-02-03T01:38:56;98517.78;;;-0.90;87.35
76746;BME280;65671;49.976;20.038;2023-02-03T01:41:26;98532.31;;;-0.88;88.56
76746;BME280;65671;49.976;20.038;2023-02-03T01:43:55;98531.47;;;-0.97;88.44
76746;BME280;65671;49.976;20.038;2023-02-03T01:46:43;98531.16;;;-1.04;88.75
76746;BME280;65671;49.976;20.038;2023-02-03T01:49:16;98523.03;;;-0.99;88.15
76746;BME280;65671;49.976;20.038;2023-02-03T01:51:44;98516.03;;;-0.95;87.74
76746;BME280;65671;49.976;20.038;2023-02-03T01:54:15;98513.38;;;-0.95;87.79
76746;BME280;65671;49.976;20.038;2023-02-03T01:56:47;98512.88;;;-0.97;87.46
76746;BME280;65671;49.976;20.038;2023-02-03T01:59:15;98518.56;;;-0.90;87.30
76746;BME280;65671;49.976;20.038;2023-02-03T02:01:42;98506.66;;;-0.92;86.95
76746;BME280;65671;49.976;20.038;2023-02-03T02:04:09;98506.97;;;-0.94;87.89
76746;BME280;65671;49.976;20.038;2023-02-03T02:06:35;98503.41;;;-0.89;86.63
76746;BME280;65671;49.976;20.038;2023-02-03T02:09:02;98491.50;;;-0.92;86.24
76746;BME280;65671;49.976;20.038;2023-02-03T02:11:28;98489.16;;;-0.93;85.40
76746;BME280;65671;49.976;20.038;2023-02-03T02:13:56;98490.41;;;-0.91;85.88
76746;BME280;65671;49.976;20.038;2023-02-03T02:37:08;98493.06;;;-0.91;85.40
76746;BME280;65671;49.976;20.038;2023-02-03T02:42:35;98498.28;;;-0.86;84.95
76746;BME280;65671;49.976;20.038;2023-02-03T02:45:13;98498.88;;;-0.89;83.66
76746;BME280;65671;49.976;20.038;2023-02-03T02:47:40;98503.22;;;-0.93;84.12
76746;BME280;65671;49.976;20.038;2023-02-03T02:50:15;98500.69;;;-0.98;83.91
76746;BME280;65671;49.976;20.038;2023-02-03T02:52:44;98504.31;;;-0.94;83.87
76746;BME280;65671;49.976;20.038;2023-02-03T02:55:20;98510.72;;;-0.95;83.41
76746;BME280;65671;49.976;20.038;2023-02-03T02:57:54;98498.75;;;-1.06;83.90
76746;BME280;65671;49.976;20.038;2023-02-03T03:00:21;98496.53;;;-1.13;83.44
76746;BME280;65671;49.976;20.038;2023-02-03T03:02:47;98494.78;;;-1.17;83.54
76746;BME280;65671;49.976;20.038;2023-02-03T03:05:13;98489.78;;;-1.19;84.85
76746;BME280;65671;49.976;20.038;2023-02-03T03:07:47;98482.22;;;-1.25;84.24
76746;BME280;65671;49.976;20.038;2023-02-03T03:10:17;98479.56;;;-1.25;84.10
76746;BME280;65671;49.976;20.038;2023-02-03T03:12:53;98470.16;;;-1.31;83.69
76746;BME280;65671;49.976;20.038;2023-02-03T03:15:27;98465.44;;;-1.34;83.90
76746;BME280;65671;49.976;20.038;2023-02-03T03:18:50;98456.03;;;-1.40;84.12
76746;BME280;65671;49.976;20.038;2023-02-03T03:20:52;98448.97;;;-1.45;83.51
76746;BME280;65671;49.976;20.038;2023-02-03T03:23:29;98441.28;;;-1.46;83.76
76746;BME280;65671;49.976;20.038;2023-02-03T03:28:41;98441.66;;;-1.61;84.35
76746;BME280;65671;49.976;20.038;2023-02-03T03:31:07;98454.03;;;-1.57;83.29
76746;BME280;65671;49.976;20.038;2023-02-03T03:33:32;98463.69;;;-1.61;84.15
76746;BME280;65671;49.976;20.038;2023-02-03T03:38:42;98468.50;;;-1.63;83.69
76746;BME280;65671;49.976;20.038;2023-02-03T03:41:22;98475.56;;;-1.58;82.59
76746;BME280;65671;49.976;20.038;2023-02-03T03:43:52;98483.25;;;-1.57;82.93
76746;BME280;65671;49.976;20.038;2023-02-03T03:46:25;98476.94;;;-1.61;82.56
76746;BME280;65671;49.976;20.038;2023-02-03T03:49:03;98486.84;;;-1.53;81.89
76746;BME280;65671;49.976;20.038;2023-02-03T03:51:34;98477.22;;;-1.49;82.03
76746;BME280;65671;49.976;20.038;2023-02-03T03:54:04;98482.19;;;-1.47;82.09
76746;BME280;65671;49.976;20.038;2023-02-03T03:56:39;98481.00;;;-1.41;80.93
76746;BME280;65671;49.976;20.038;2023-02-03T03:59:08;98481.50;;;-1.39;81.45
76746;BME280;65671;49.976;20.038;2023-02-03T04:01:37;98464.97;;;-1.36;81.65
76746;BME280;65671;49.976;20.038;2023-02-03T04:04:06;98462.91;;;-1.39;82.24
76746;BME280;65671;49.976;20.038;2023-02-03T04:06:33;98454.44;;;-1.41;81.03
76746;BME280;65671;49.976;20.038;2023-02-03T04:08:59;98434.72;;;-1.49;81.43
76746;BME280;65671;49.976;20.038;2023-02-03T04:11:26;98436.31;;;-1.48;81.57
76746;BME280;65671;49.976;20.038;2023-02-03T04:14:10;98434.66;;;-1.57;81.26
76746;BME280;65671;49.976;20.038;2023-02-03T04:16:36;98428.50;;;-1.66;81.32
76746;BME280;65671;49.976;20.038;2023-02-03T04:19:01;98426.50;;;-1.61;80.38
76746;BME280;65671;49.976;20.038;2023-02-03T04:21:26;98420.16;;;-1.74;80.79
76746;BME280;65671;49.976;20.038;2023-02-03T04:23:52;98425.06;;;-1.67;80.16
76746;BME280;65671;49.976;20.038;2023-02-03T04:26:17;98413.59;;;-1.76;81.47
76746;BME280;65671;49.976;20.038;2023-02-03T04:28:43;98419.56;;;-1.71;80.27
76746;BME280;65671;49.976;20.038;2023-02-03T04:31:09;98427.84;;;-1.72;81.72
76746;BME280;65671;49.976;20.038;2023-02-03T04:33:34;98425.66;;;-1.70;80.70
76746;BME280;65671;49.976;20.038;2023-02-03T04:36:00;98424.88;;;-1.71;80.78
76746;BME280;65671;49.976;20.038;2023-02-03T04:38:25;98432.47;;;-1.78;81.11
76746;BME280;65671;49.976;20.038;2023-02-03T04:40:51;98435.13;;;-1.78;81.91
76746;BME280;65671;49.976;20.038;2023-02-03T04:43:16;98432.94;;;-1.76;82.18
76746;BME280;65671;49.976;20.038;2023-02-03T04:45:42;98424.31;;;-1.81;80.90
76746;BME280;65671;49.976;20.038;2023-02-03T04:48:07;98429.63;;;-1.81;81.92
76746;BME280;65671;49.976;20.038;2023-02-03T04:50:33;98438.97;;;-1.84;80.97
76746;BME280;65671;49.976;20.038;2023-02-03T04:52:59;98423.06;;;-1.84;81.64
76746;BME280;65671;49.976;20.038;2023-02-03T04:55:28;98417.25;;;-1.86;81.20
76746;BME280;65671;49.976;20.038;2023-02-03T04:57:55;98421.78;;;-1.86;80.98
76746;BME280;65671;49.976;20.038;2023-02-03T05:00:21;98413.03;;;-1.87;81.82
76746;BME280;65671;49.976;20.038;2023-02-03T05:02:46;98407.72;;;-1.87;81.66
76746;BME280;65671;49.976;20.038;2023-02-03T05:05:12;98411.47;;;-1.88;81.92
76746;BME280;65671;49.976;20.038;2023-02-03T05:07:37;98400.00;;;-1.97;81.79
76746;BME280;65671;49.976;20.038;2023-02-03T05:10:03;98415.50;;;-1.90;81.73
76746;BME280;65671;49.976;20.038;2023-02-03T05:12:29;98404.69;;;-1.94;80.72
76746;BME280;65671;49.976;20.038;2023-02-03T05:14:55;98399.28;;;-1.89;81.57
76746;BME280;65671;49.976;20.038;2023-02-03T05:17:20;98401.63;;;-1.87;81.44
76746;BME280;65671;49.976;20.038;2023-02-03T05:19:46;98405.38;;;-1.88;80.56
76746;BME280;65671;49.976;20.038;2023-02-03T05:22:12;98400.97;;;-1.93;80.04
76746;BME280;65671;49.976;20.038;2023-02-03T05:24:37;98403.91;;;-1.94;80.60
76746;BME280;65671;49.976;20.038;2023-02-03T05:27:03;98407.94;;;-1.97;80.39
76746;BME280;65671;49.976;20.038;2023-02-03T05:29:28;98396.53;;;-1.97;80.72
76746;BME280;65671;49.976;20.038;2023-02-03T05:31:54;98399.78;;;-2.00;81.33
76746;BME280;65671;49.976;20.038;2023-02-03T05:34:20;98400.59;;;-2.00;80.86
76746;BME280;65671;49.976;20.038;2023-02-03T05:36:45;98391.09;;;-2.01;80.61
76746;BME280;65671;49.976;20.038;2023-02-03T05:39:11;98392.16;;;-2.02;80.29
76746;BME280;65671;49.976;20.038;2023-02-03T05:41:36;98387.03;;;-1.98;80.72
76746;BME280;65671;49.976;20.038;2023-02-03T05:44:25;98385.88;;;-2.06;81.09
76746;BME280;65671;49.976;20.038;2023-02-03T05:46:53;98380.47;;;-2.01;80.85
76746;BME280;65671;49.976;20.038;2023-02-03T05:49:19;98374.84;;;-1.99;80.79
76746;BME280;65671;49.976;20.038;2023-02-03T05:51:45;98380.75;;;-2.02;80.42
76746;BME280;65671;49.976;20.038;2023-02-03T05:54:11;98375.22;;;-1.92;80.32
76746;BME280;65671;49.976;20.038;2023-02-03T05:56:37;98369.13;;;-1.93;80.60
76746;BME280;65671;49.976;20.038;2023-02-03T05:59:03;98372.38;;;-1.96;81.33
76746;BME280;65671;49.976;20.038;2023-02-03T06:01:30;98363.25;;;-2.03;81.40
76746;BME280;65671;49.976;20.038;2023-02-03T06:03:56;98353.16;;;-2.01;80.68
76746;BME280;65671;49.976;20.038;2023-02-03T06:06:21;98353.81;;;-1.96;81.03
76746;BME280;65671;49.976;20.038;2023-02-03T06:08:47;98337.69;;;-1.99;80.56
76746;BME280;65671;49.976;20.038;2023-02-03T06:11:13;98348.97;;;-1.94;81.19
76746;BME280;65671;49.976;20.038;2023-02-03T06:13:38;98354.47;;;-1.90;80.64
76746;BME280;65671;49.976;20.038;2023-02-03T06:16:04;98358.72;;;-1.89;80.43
76746;BME280;65671;49.976;20.038;2023-02-03T06:18:30;98353.69;;;-1.91;80.20
76746;BME280;65671;49.976;20.038;2023-02-03T06:20:56;98340.00;;;-1.84;79.88
76746;BME280;65671;49.976;20.038;2023-02-03T06:23:21;98324.50;;;-1.91;80.04
76746;BME280;65671;49.976;20.038;2023-02-03T06:25:48;98304.47;;;-1.97;79.72
76746;BME280;65671;49.976;20.038;2023-02-03T06:28:16;98307.84;;;-1.83;79.92
76746;BME280;65671;49.976;20.038;2023-02-03T06:30:42;98309.84;;;-1.88;79.20
76746;BME280;65671;49.976;20.038;2023-02-03T06:33:08;98302.53;;;-1.83;78.86
76746;BME280;65671;49.976;20.038;2023-02-03T06:35:33;98293.81;;;-1.83;80.46
76746;BME280;65671;49.976;20.038;2023-02-03T06:37:59;98296.16;;;-1.82;78.71
76746;BME280;65671;49.976;20.038;2023-02-03T06:40:25;98279.00;;;-1.76;80.15
76746;BME280;65671;49.976;20.038;2023-02-03T06:42:50;98281.34;;;-1.74;78.91
76746;BME280;65671;49.976;20.038;2023-02-03T06:45:16;98281.41;;;-1.65;78.72
76746;BME280;65671;49.976;20.038;2023-02-03T06:47:44;98283.97;;;-1.52;77.37
76746;BME280;65671;49.976;20.038;2023-02-03T06:50:12;98292.03;;;-1.65;77.23
76746;BME280;65671;49.976;20.038;2023-02-03T06:52:39;98286.72;;;-1.65;78.39
76746;BME280;65671;49.976;20.038;2023-02-03T06:55:05;98274.81;;;-1.68;77.46
76746;BME280;65671;49.976;20.038;2023-02-03T06:57:31;98266.94;;;-1.59;77.95
76746;BME280;65671;49.976;20.038;2023-02-03T06:59:57;98269.03;;;-1.39;76.51
76746;BME280;65671;49.976;20.038;2023-02-03T07:02:23;98272.41;;;-1.47;77.19
76746;BME280;65671;49.976;20.038;2023-02-03T07:04:50;98262.31;;;-1.45;76.39
76746;BME280;65671;49.976;20.038;2023-02-03T07:07:16;98272.47;;;-1.39;76.65
76746;BME280;65671;49.976;20.038;2023-02-03T07:09:41;98271.78;;;-1.53;77.19
76746;BME280;65671;49.976;20.038;2023-02-03T07:12:07;98272.41;;;-1.47;77.00
76746;BME280;65671;49.976;20.038;2023-02-03T07:14:34;98270.38;;;-1.50;76.98
76746;BME280;65671;49.976;20.038;2023-02-03T07:17:01;98258.88;;;-1.37;76.13
76746;BME280;65671;49.976;20.038;2023-02-03T07:19:27;98249.53;;;-1.35;75.07
76746;BME280;65671;49.976;20.038;2023-02-03T07:21:53;98251.38;;;-1.35;76.00
76746;BME280;65671;49.976;20.038;2023-02-03T07:24:18;98252.19;;;-1.35;75.82
76746;BME280;65671;49.976;20.038;2023-02-03T07:26:44;98246.28;;;-1.23;75.31
76746;BME280;65671;49.976;20.038;2023-02-03T07:29:10;98245.38;;;-1.19;76.04
76746;BME280;65671;49.976;20.038;2023-02-03T07:31:35;98253.00;;;-1.17;76.06
76746;BME280;65671;49.976;20.038;2023-02-03T07:34:03;98245.72;;;-0.94;74.82
76746;BME280;65671;49.976;20.038;2023-02-03T07:36:28;98247.44;;;-0.98;74.47
76746;BME280;65671;49.976;20.038;2023-02-03T07:38:54;98242.78;;;-0.84;72.26
76746;BME280;65671;49.976;20.038;2023-02-03T07:41:20;98237.81;;;-0.60;72.44
76746;BME280;65671;49.976;20.038;2023-02-03T07:43:46;98242.34;;;-0.61;71.76
76746;BME280;65671;49.976;20.038;2023-02-03T07:46:11;98237.81;;;-0.51;71.59
76746;BME280;65671;49.976;20.038;2023-02-03T07:48:37;98235.91;;;-0.42;71.56
76746;BME280;65671;49.976;20.038;2023-02-03T07:51:02;98221.81;;;-0.34;70.82
76746;BME280;65671;49.976;20.038;2023-02-03T07:53:28;98224.34;;;-0.46;70.43
76746;BME280;65671;49.976;20.038;2023-02-03T07:55:54;98223.09;;;-0.58;70.54
76746;BME280;65671;49.976;20.038;2023-02-03T07:58:19;98208.84;;;-0.53;70.61
76746;BME280;65671;49.976;20.038;2023-02-03T08:00:45;98201.19;;;-0.37;68.99
76746;BME280;65671;49.976;20.038;2023-02-03T08:03:10;98201.34;;;-0.42;68.88
76746;BME280;65671;49.976;20.038;2023-02-03T08:05:35;98196.47;;;-0.32;68.87
76746;BME280;65671;49.976;20.038;2023-02-03T08:08:01;98194.28;;;-0.38;68.16
76746;BME280;65671;49.976;20.038;2023-02-03T08:10:27;98190.50;;;-0.20;67.21
76746;BME280;65671;49.976;20.038;2023-02-03T08:12:53;98194.41;;;-0.18;67.49
76746;BME280;65671;49.976;20.038;2023-02-03T08:15:19;98185.19;;;-0.20;67.21
76746;BME280;65671;49.976;20.038;2023-02-03T08:17:44;98185.16;;;-0.12;65.94
76746;BME280;65671;49.976;20.038;2023-02-03T08:20:10;98172.59;;;0.06;68.18
76746;BME280;65671;49.976;20.038;2023-02-03T08:22:36;98180.31;;;0.37;66.23
76746;BME280;65671;49.976;20.038;2023-02-03T08:25:02;98161.44;;;0.13;65.78
76746;BME280;65671;49.976;20.038;2023-02-03T08:27:30;98166.00;;;0.12;66.75
76746;BME280;65671;49.976;20.038;2023-02-03T08:29:56;98145.91;;;0.23;66.17
76746;BME280;65671;49.976;20.038;2023-02-03T08:32:22;98140.75;;;0.18;65.95
76746;BME280;65671;49.976;20.038;2023-02-03T08:34:48;98134.84;;;0.13;66.94
76746;BME280;65671;49.976;20.038;2023-02-03T08:37:15;98134.25;;;-0.02;65.72
76746;BME280;65671;49.976;20.038;2023-02-03T08:39:41;98135.28;;;0.23;65.97
76746;BME280;65671;49.976;20.038;2023-02-03T08:42:07;98133.69;;;0.22;66.75
76746;BME280;65671;49.976;20.038;2023-02-03T08:44:33;98127.88;;;-0.09;66.63
76746;BME280;65671;49.976;20.038;2023-02-03T08:46:59;98129.09;;;0.02;66.70
76746;BME280;65671;49.976;20.038;2023-02-03T08:49:26;98123.28;;;0.09;66.96
76746;BME280;65671;49.976;20.038;2023-02-03T08:51:53;98116.28;;;0.25;66.92
76746;BME280;65671;49.976;20.038;2023-02-03T08:54:20;98109.00;;;0.13;65.53
76746;BME280;65671;49.976;20.038;2023-02-03T08:56:46;98111.13;;;0.28;66.25
76746;BME280;65671;49.976;20.038;2023-02-03T08:59:12;98101.28;;;0.49;65.20
76746;BME280;65671;49.976;20.038;2023-02-03T09:01:39;98099.38;;;0.59;64.74
76746;BME280;65671;49.976;20.038;2023-02-03T09:04:06;98084.38;;;0.45;64.07
76746;BME280;65671;49.976;20.038;2023-02-03T09:06:33;98092.75;;;0.85;63.72
76746;BME280;65671;49.976;20.038;2023-02-03T09:08:59;98074.03;;;0.73;61.11
76746;BME280;65671;49.976;20.038;2023-02-03T09:11:25;98061.94;;;0.76;61.64
76746;BME280;65671;49.976;20.038;2023-02-03T09:13:51;98069.97;;;0.46;61.43
76746;BME280;65671;49.976;20.038;2023-02-03T09:16:17;98073.88;;;0.49;62.76
76746;BME280;65671;49.976;20.038;2023-02-03T09:18:44;98074.78;;;0.53;62.98
76746;BME280;65671;49.976;20.038;2023-02-03T09:21:11;98073.44;;;0.47;63.73
76746;BME280;65671;49.976;20.038;2023-02-03T09:23:38;98079.13;;;0.57;62.42
76746;BME280;65671;49.976;20.038;2023-02-03T09:26:07;98065.69;;;0.75;62.05
76746;BME280;65671;49.976;20.038;2023-02-03T09:28:34;98067.91;;;0.93;61.72
76746;BME280;65671;49.976;20.038;2023-02-03T09:31:05;98068.13;;;0.68;60.99
76746;BME280;65671;49.976;20.038;2023-02-03T09:33:32;98062.97;;;0.83;60.67
76746;BME280;65671;49.976;20.038;2023-02-03T09:35:58;98069.97;;;1.08;60.37
76746;BME280;65671;49.976;20.038;2023-02-03T09:38:24;98053.84;;;1.05;59.99
76746;BME280;65671;49.976;20.038;2023-02-03T09:46:49;98039.66;;;1.13;59.82
76746;BME280;65671;49.976;20.038;2023-02-03T09:49:20;98030.56;;;1.14;58.03
76746;BME280;65671;49.976;20.038;2023-02-03T09:51:54;98032.00;;;1.11;59.20
76746;BME280;65671;49.976;20.038;2023-02-03T09:54:26;98023.38;;;0.94;58.42
76746;BME280;65671;49.976;20.038;2023-02-03T09:56:56;98020.44;;;0.87;58.55
76746;BME280;65671;49.976;20.038;2023-02-03T09:59:26;98025.63;;;1.04;57.97
76746;BME280;65671;49.976;20.038;2023-02-03T10:04:42;98008.56;;;1.17;56.80
76746;BME280;65671;49.976;20.038;2023-02-03T10:07:20;98007.59;;;1.34;58.50
76746;BME280;65671;49.976;20.038;2023-02-03T10:17:58;97985.06;;;0.98;63.23
76746;BME280;65671;49.976;20.038;2023-02-03T10:20:54;97974.41;;;0.98;63.85
76746;BME280;65671;49.976;20.038;2023-02-03T10:23:28;97963.84;;;1.02;65.20
76746;BME280;65671;49.976;20.038;2023-02-03T10:25:55;97947.56;;;1.28;65.44
76746;BME280;65671;49.976;20.038;2023-02-03T10:28:38;97940.16;;;1.57;63.41
76746;BME280;65671;49.976;20.038;2023-02-03T10:31:12;97932.03;;;1.66;64.34
76746;BME280;65671;49.976;20.038;2023-02-03T10:33:41;97923.94;;;1.50;65.16
76746;BME280;65671;49.976;20.038;2023-02-03T10:41:14;97892.34;;;1.52;64.40
76746;BME280;65671;49.976;20.038;2023-02-03T10:43:41;97899.00;;;1.71;63.57
76746;BME280;65671;49.976;20.038;2023-02-03T10:46:17;97885.69;;;1.58;63.60
76746;BME280;65671;49.976;20.038;2023-02-03T10:48:43;97869.91;;;1.41;64.03
76746;BME280;65671;49.976;20.038;2023-02-03T10:51:19;97862.44;;;1.47;62.55
76746;BME280;65671;49.976;20.038;2023-02-03T10:53:45;97850.09;;;1.42;63.78
76746;BME280;65671;49.976;20.038;2023-02-03T10:56:12;97851.34;;;1.08;66.55
76746;BME280;65671;49.976;20.038;2023-02-03T10:58:44;97812.34;;;1.16;65.60
76746;BME280;65671;49.976;20.038;2023-02-03T11:01:13;97821.00;;;1.01;66.04
76746;BME280;65671;49.976;20.038;2023-02-03T11:03:53;97813.88;;;0.81;67.72
76746;BME280;65671;49.976;20.038;2023-02-03T11:06:19;97812.31;;;0.92;68.26
76746;BME280;65671;49.976;20.038;2023-02-03T11:08:46;97807.69;;;0.77;70.40
76746;BME280;65671;49.976;20.038;2023-02-03T11:16:37;97764.22;;;0.40;72.92
76746;BME280;65671;49.976;20.038;2023-02-03T11:19:15;97763.00;;;0.37;74.74
76746;BME280;65671;49.976;20.038;2023-02-03T11:21:45;97753.91;;;0.38;75.67
76746;BME280;65671;49.976;20.038;2023-02-03T11:24:31;97741.72;;;0.62;76.02
76746;BME280;65671;49.976;20.038;2023-02-03T11:27:00;97739.72;;;0.59;76.46
76746;BME280;65671;49.976;20.038;2023-02-03T11:29:42;97737.69;;;0.43;76.95
76746;BME280;65671;49.976;20.038;2023-02-03T11:35:26;97703.41;;;0.66;77.74
76746;BME280;65671;49.976;20.038;2023-02-03T11:37:56;97702.84;;;0.36;79.24
76746;BME280;65671;49.976;20.038;2023-02-03T11:45:25;97658.47;;;0.40;80.11
76746;BME280;65671;49.976;20.038;2023-02-03T11:51:01;97642.81;;;0.15;81.33
76746;BME280;65671;49.976;20.038;2023-02-03T12:02:12;97590.44;;;0.43;82.40
76746;BME280;65671;49.976;20.038;2023-02-03T12:10:33;97563.72;;;0.15;83.26
76746;BME280;65671;49.976;20.038;2023-02-03T12:18:37;97530.00;;;0.31;84.70
76746;BME280;65671;49.976;20.038;2023-02-03T12:24:14;97518.91;;;0.17;83.94
76746;BME280;65671;49.976;20.038;2023-02-03T12:29:34;97494.47;;;0.27;84.04
76746;BME280;65671;49.976;20.038;2023-02-03T12:37:40;97462.09;;;0.25;83.98
76746;BME280;65671;49.976;20.038;2023-02-03T12:40:41;97457.66;;;0.29;84.46
76746;BME280;65671;49.976;20.038;2023-02-03T12:45:37;97443.22;;;0.30;84.97
76746;BME280;65671;49.976;20.038;2023-02-03T12:48:18;97440.38;;;0.23;85.03
76746;BME280;65671;49.976;20.038;2023-02-03T12:50:49;97428.88;;;0.07;86.40
76746;BME280;65671;49.976;20.038;2023-02-03T12:53:38;97421.38;;;-0.15;86.90
76746;BME280;65671;49.976;20.038;2023-02-03T12:56:08;97413.69;;;0.08;87.32
76746;BME280;65671;49.976;20.038;2023-02-03T13:01:19;97403.56;;;0.13;86.71
76746;BME280;65671;49.976;20.038;2023-02-03T13:04:09;97391.19;;;0.05;88.05
76746;BME280;65671;49.976;20.038;2023-02-03T13:09:30;97367.09;;;0.14;86.82
76746;BME280;65671;49.976;20.038;2023-02-03T13:17:26;97355.03;;;0.32;87.22
76746;BME280;65671;49.976;20.038;2023-02-03T13:19:57;97351.09;;;0.41;87.54
76746;BME280;65671;49.976;20.038;2023-02-03T13:22:24;97344.91;;;0.37;86.68
76746;BME280;65671;49.976;20.038;2023-02-03T13:30:35;97320.75;;;0.30;87.42
76746;BME280;65671;49.976;20.038;2023-02-03T13:41:27;97282.78;;;0.33;88.51
76746;BME280;65671;49.976;20.038;2023-02-03T13:43:53;97280.91;;;0.34;88.64
76746;BME280;65671;49.976;20.038;2023-02-03T13:46:25;97271.06;;;0.50;88.88
76746;BME280;65671;49.976;20.038;2023-02-03T13:48:52;97266.94;;;0.52;88.31
76746;BME280;65671;49.976;20.038;2023-02-03T13:51:30;97258.75;;;0.45;89.02
76746;BME280;65671;49.976;20.038;2023-02-03T13:54:02;97250.59;;;0.54;88.63
76746;BME280;65671;49.976;20.038;2023-02-03T13:56:30;97245.88;;;0.47;88.40
76746;BME280;65671;49.976;20.038;2023-02-03T13:59:19;97236.41;;;0.66;88.84
76746;BME280;65671;49.976;20.038;2023-02-03T14:07:32;97219.09;;;0.40;90.08
76746;BME280;65671;49.976;20.038;2023-02-03T14:25:29;97142.13;;;0.35;90.89
76746;BME280;65671;49.976;20.038;2023-02-03T14:28:02;97148.22;;;0.36;90.63
76746;BME280;65671;49.976;20.038;2023-02-03T14:30:29;97132.91;;;0.33;91.05
76746;BME280;65671;49.976;20.038;2023-02-03T14:32:57;97130.19;;;0.29;91.28
76746;BME280;65671;49.976;20.038;2023-02-03T14:35:32;97129.75;;;0.27;91.59
76746;BME280;65671;49.976;20.038;2023-02-03T14:38:01;97126.59;;;0.22;92.45
76746;BME280;65671;49.976;20.038;2023-02-03T14:40:48;97107.69;;;0.27;91.42
76746;BME280;65671;49.976;20.038;2023-02-03T14:56:51;97091.78;;;0.30;91.76
76746;BME280;65671;49.976;20.038;2023-02-03T14:59:47;97081.13;;;0.30;91.77
76746;BME280;65671;49.976;20.038;2023-02-03T15:02:20;97069.72;;;0.30;91.40
76746;BME280;65671;49.976;20.038;2023-02-03T15:07:41;97070.84;;;0.29;92.15
76746;BME280;65671;49.976;20.038;2023-02-03T15:10:20;97063.66;;;0.29;92.28
76746;BME280;65671;49.976;20.038;2023-02-03T15:12:52;97041.41;;;0.22;92.04
76746;BME280;65671;49.976;20.038;2023-02-03T15:15:18;97056.06;;;0.31;91.89
76746;BME280;65671;49.976;20.038;2023-02-03T15:17:47;97056.84;;;0.32;92.23
76746;BME280;65671;49.976;20.038;2023-02-03T15:20:32;97056.94;;;0.35;92.06
76746;BME280;65671;49.976;20.038;2023-02-03T15:23:00;97048.81;;;0.47;92.28
76746;BME280;65671;49.976;20.038;2023-02-03T15:25:28;97062.94;;;0.32;92.13
76746;BME280;65671;49.976;20.038;2023-02-03T15:28:09;97056.50;;;0.33;91.63
76746;BME280;65671;49.976;20.038;2023-02-03T15:30:35;97066.44;;;0.36;92.28
76746;BME280;65671;49.976;20.038;2023-02-03T15:33:06;97063.78;;;0.36;91.64
76746;BME280;65671;49.976;20.038;2023-02-03T15:35:33;97053.91;;;0.37;92.03
76746;BME280;65671;49.976;20.038;2023-02-03T15:38:07;97046.91;;;0.29;92.51
76746;BME280;65671;49.976;20.038;2023-02-03T15:40:48;97066.03;;;0.34;91.98
76746;BME280;65671;49.976;20.038;2023-02-03T15:43:22;97067.41;;;0.28;92.33
76746;BME280;65671;49.976;20.038;2023-02-03T15:46:05;97071.63;;;0.29;92.11
76746;BME280;65671;49.976;20.038;2023-02-03T15:48:46;97086.22;;;0.35;91.82